Conception Harbour, Canada
Current Conditions -  °F | °C
As of 8:16 PM on Wednesday 17 Dec 2014 (Local Time) from CYYT Reporting Station
Overcast Overcast  
Wind Chill: 24°   Ceiling: 1300
Heat Index: 30°   Visibility: 15mi
Dew Point: 27°   Wind: 6mph
Humidity: 86%   Direction: 90°E
Pressure: 30.13"   Gusts: NA
Location:  47.43°N, 53.22°W
Report Text: CYYT 172316Z 09005KT 15SM OVC013 M01/M03 A3013 RMK SC8 SLP210
Loading
Personal Weather Stations






























Interactive Weather Map New forecast layout! Learn more

10-Day Weather Forecast

Advertisements
Track Severe Weather on mobile